sensor_id;sensor_type;location;lat;lon;timestamp;pressure;altitude;pressure_sealevel;temperature;humidity
5609;BME280;2826;51.354;9.588;2023-06-26T00:01:02;98117.56;;;22.42;67.39
5609;BME280;2826;51.354;9.588;2023-06-26T00:03:30;98110.03;;;22.37;67.65
5609;BME280;2826;51.354;9.588;2023-06-26T00:05:57;98108.63;;;22.33;67.53
5609;BME280;2826;51.354;9.588;2023-06-26T00:08:26;98106.13;;;22.31;67.48
5609;BME280;2826;51.354;9.588;2023-06-26T00:10:53;98102.81;;;22.29;67.32
5609;BME280;2826;51.354;9.588;2023-06-26T00:13:19;98105.44;;;22.29;67.47
5609;BME280;2826;51.354;9.588;2023-06-26T00:15:47;98104.47;;;22.30;67.38
5609;BME280;2826;51.354;9.588;2023-06-26T00:18:14;98105.00;;;22.34;67.36
5609;BME280;2826;51.354;9.588;2023-06-26T00:20:41;98106.00;;;22.33;67.77
5609;BME280;2826;51.354;9.588;2023-06-26T00:23:07;98109.63;;;22.32;67.40
5609;BME280;2826;51.354;9.588;2023-06-26T00:25:34;98111.41;;;22.31;67.33
5609;BME280;2826;51.354;9.588;2023-06-26T00:28:01;98106.00;;;22.33;67.20
5609;BME280;2826;51.354;9.588;2023-06-26T00:30:29;98083.91;;;22.24;66.70
5609;BME280;2826;51.354;9.588;2023-06-26T00:32:57;98096.97;;;22.36;66.32
5609;BME280;2826;51.354;9.588;2023-06-26T00:35:24;98096.97;;;22.36;66.62
5609;BME280;2826;51.354;9.588;2023-06-26T00:37:50;98086.53;;;22.34;66.13
5609;BME280;2826;51.354;9.588;2023-06-26T00:40:17;98090.84;;;22.35;66.20
5609;BME280;2826;51.354;9.588;2023-06-26T00:42:44;98086.69;;;22.32;66.34
5609;BME280;2826;51.354;9.588;2023-06-26T00:45:10;98088.47;;;22.32;66.57
5609;BME280;2826;51.354;9.588;2023-06-26T00:47:37;98096.81;;;22.27;67.27
5609;BME280;2826;51.354;9.588;2023-06-26T00:50:06;98081.66;;;22.19;67.10
5609;BME280;2826;51.354;9.588;2023-06-26T00:52:33;98090.44;;;22.20;67.08
5609;BME280;2826;51.354;9.588;2023-06-26T00:55:00;98080.25;;;22.15;67.73
5609;BME280;2826;51.354;9.588;2023-06-26T00:57:27;98085.69;;;22.14;67.83
5609;BME280;2826;51.354;9.588;2023-06-26T00:59:53;98083.16;;;22.12;66.86
5609;BME280;2826;51.354;9.588;2023-06-26T01:02:20;98086.53;;;22.14;66.46
5609;BME280;2826;51.354;9.588;2023-06-26T01:04:48;98085.53;;;22.15;66.64
5609;BME280;2826;51.354;9.588;2023-06-26T01:07:18;98083.03;;;22.14;67.01
5609;BME280;2826;51.354;9.588;2023-06-26T01:09:47;98081.38;;;22.13;67.41
5609;BME280;2826;51.354;9.588;2023-06-26T01:12:14;98084.00;;;22.13;67.37
5609;BME280;2826;51.354;9.588;2023-06-26T01:14:41;98078.19;;;22.09;66.57
5609;BME280;2826;51.354;9.588;2023-06-26T01:17:09;98078.31;;;22.08;66.63
5609;BME280;2826;51.354;9.588;2023-06-26T01:19:37;98073.16;;;22.06;67.04
5609;BME280;2826;51.354;9.588;2023-06-26T01:22:10;98058.41;;;21.93;67.05
5609;BME280;2826;51.354;9.588;2023-06-26T01:24:53;98067.88;;;22.06;67.01
5609;BME280;2826;51.354;9.588;2023-06-26T01:27:25;98068.16;;;22.03;66.95
5609;BME280;2826;51.354;9.588;2023-06-26T01:29:52;98063.03;;;22.01;66.98
5609;BME280;2826;51.354;9.588;2023-06-26T01:32:20;98066.63;;;22.00;66.55
5609;BME280;2826;51.354;9.588;2023-06-26T01:34:47;98063.97;;;22.00;66.45
5609;BME280;2826;51.354;9.588;2023-06-26T01:37:13;98059.69;;;21.99;66.26
5609;BME280;2826;51.354;9.588;2023-06-26T01:39:40;98064.81;;;22.01;66.23
5609;BME280;2826;51.354;9.588;2023-06-26T01:42:07;98062.88;;;22.03;66.13
5609;BME280;2826;51.354;9.588;2023-06-26T01:44:37;98054.69;;;22.06;65.86
5609;BME280;2826;51.354;9.588;2023-06-26T01:47:06;98056.47;;;22.05;66.19
5609;BME280;2826;51.354;9.588;2023-06-26T01:49:43;98049.66;;;22.03;66.69
5609;BME280;2826;51.354;9.588;2023-06-26T01:52:16;98046.59;;;21.98;66.46
5609;BME280;2826;51.354;9.588;2023-06-26T01:54:52;98029.66;;;21.90;66.35
5609;BME280;2826;51.354;9.588;2023-06-26T01:57:20;98045.50;;;22.00;66.13
5609;BME280;2826;51.354;9.588;2023-06-26T01:59:50;98042.84;;;22.00;65.73
5609;BME280;2826;51.354;9.588;2023-06-26T02:02:17;98044.56;;;22.01;65.72
5609;BME280;2826;51.354;9.588;2023-06-26T02:04:44;98035.78;;;22.01;65.10
5609;BME280;2826;51.354;9.588;2023-06-26T02:07:13;98039.41;;;22.00;64.95
5609;BME280;2826;51.354;9.588;2023-06-26T02:09:40;98036.06;;;21.98;65.13
5609;BME280;2826;51.354;9.588;2023-06-26T02:12:07;98034.38;;;21.97;65.01
5609;BME280;2826;51.354;9.588;2023-06-26T02:14:33;98036.47;;;21.93;65.43
5609;BME280;2826;51.354;9.588;2023-06-26T02:17:02;98033.56;;;21.86;65.60
5609;BME280;2826;51.354;9.588;2023-06-26T02:19:29;98031.19;;;21.83;65.35
5609;BME280;2826;51.354;9.588;2023-06-26T02:21:57;98025.47;;;21.78;65.82
5609;BME280;2826;51.354;9.588;2023-06-26T02:24:24;98029.91;;;21.77;65.77
5609;BME280;2826;51.354;9.588;2023-06-26T02:26:52;98029.22;;;21.75;65.93
5609;BME280;2826;51.354;9.588;2023-06-26T02:29:19;98029.59;;;21.71;66.17
5609;BME280;2826;51.354;9.588;2023-06-26T02:31:45;98020.97;;;21.69;66.21
5609;BME280;2826;51.354;9.588;2023-06-26T02:34:13;98014.56;;;21.61;66.46
5609;BME280;2826;51.354;9.588;2023-06-26T02:36:39;98020.69;;;21.62;66.37
5609;BME280;2826;51.354;9.588;2023-06-26T02:39:07;98022.75;;;21.58;66.55
5609;BME280;2826;51.354;9.588;2023-06-26T02:41:33;98018.56;;;21.56;66.55
5609;BME280;2826;51.354;9.588;2023-06-26T02:44:00;98025.09;;;21.51;67.18
5609;BME280;2826;51.354;9.588;2023-06-26T02:46:27;98021.75;;;21.49;66.94
5609;BME280;2826;51.354;9.588;2023-06-26T02:48:54;98026.19;;;21.49;67.00
5609;BME280;2826;51.354;9.588;2023-06-26T02:51:23;98018.69;;;21.44;66.75
5609;BME280;2826;51.354;9.588;2023-06-26T02:53:51;98018.56;;;21.46;67.20
5609;BME280;2826;51.354;9.588;2023-06-26T02:56:17;98019.69;;;21.43;67.31
5609;BME280;2826;51.354;9.588;2023-06-26T03:01:10;98006.31;;;21.35;67.40
5609;BME280;2826;51.354;9.588;2023-06-26T03:03:40;98015.34;;;21.32;67.70
5609;BME280;2826;51.354;9.588;2023-06-26T03:06:12;98014.63;;;21.30;67.53
5609;BME280;2826;51.354;9.588;2023-06-26T03:08:40;98021.84;;;21.28;67.79
5609;BME280;2826;51.354;9.588;2023-06-26T03:11:07;98012.22;;;21.27;67.68
5609;BME280;2826;51.354;9.588;2023-06-26T03:13:36;98012.66;;;21.22;67.95
5609;BME280;2826;51.354;9.588;2023-06-26T03:16:03;98016.09;;;21.23;67.64
5609;BME280;2826;51.354;9.588;2023-06-26T03:18:30;98015.28;;;21.22;67.73
5609;BME280;2826;51.354;9.588;2023-06-26T03:20:57;98012.78;;;21.21;67.92
5609;BME280;2826;51.354;9.588;2023-06-26T03:23:25;98011.94;;;21.20;68.63
5609;BME280;2826;51.354;9.588;2023-06-26T03:25:53;98015.41;;;21.21;68.32
5609;BME280;2826;51.354;9.588;2023-06-26T03:28:29;98011.81;;;21.22;68.89
5609;BME280;2826;51.354;9.588;2023-06-26T03:30:56;98009.16;;;21.22;68.53
5609;BME280;2826;51.354;9.588;2023-06-26T03:33:24;98008.34;;;21.21;69.00
5609;BME280;2826;51.354;9.588;2023-06-26T03:35:51;98000.28;;;21.23;68.78
5609;BME280;2826;51.354;9.588;2023-06-26T03:38:19;98004.75;;;21.22;68.56
5609;BME280;2826;51.354;9.588;2023-06-26T03:40:46;98005.56;;;21.23;68.74
5609;BME280;2826;51.354;9.588;2023-06-26T03:43:14;98005.44;;;21.24;68.63
5609;BME280;2826;51.354;9.588;2023-06-26T03:46:04;98007.13;;;21.25;68.49
5609;BME280;2826;51.354;9.588;2023-06-26T03:48:30;98011.97;;;21.30;68.23
5609;BME280;2826;51.354;9.588;2023-06-26T03:50:57;98000.47;;;21.31;67.68
5609;BME280;2826;51.354;9.588;2023-06-26T03:53:24;97997.69;;;21.33;67.65
5609;BME280;2826;51.354;9.588;2023-06-26T03:55:50;98002.00;;;21.34;67.75
5609;BME280;2826;51.354;9.588;2023-06-26T03:58:18;97993.13;;;21.35;67.97
5609;BME280;2826;51.354;9.588;2023-06-26T04:00:45;97989.53;;;21.36;67.67
5609;BME280;2826;51.354;9.588;2023-06-26T04:05:40;97985.78;;;21.38;67.72
5609;BME280;2826;51.354;9.588;2023-06-26T04:08:07;97990.66;;;21.43;67.66
5609;BME280;2826;51.354;9.588;2023-06-26T04:10:34;97993.00;;;21.46;67.68
5609;BME280;2826;51.354;9.588;2023-06-26T04:13:01;97990.25;;;21.48;67.58
5609;BME280;2826;51.354;9.588;2023-06-26T04:15:29;97993.31;;;21.53;67.04
5609;BME280;2826;51.354;9.588;2023-06-26T04:17:55;97993.03;;;21.56;66.89
5609;BME280;2826;51.354;9.588;2023-06-26T04:20:22;98001.38;;;21.61;66.88
5609;BME280;2826;51.354;9.588;2023-06-26T04:22:48;97997.63;;;21.64;66.98
5609;BME280;2826;51.354;9.588;2023-06-26T04:25:15;98007.06;;;21.66;66.49
5609;BME280;2826;51.354;9.588;2023-06-26T04:27:42;97985.81;;;21.58;66.51
5609;BME280;2826;51.354;9.588;2023-06-26T04:30:09;98002.97;;;21.74;66.60
5609;BME280;2826;51.354;9.588;2023-06-26T04:32:38;98003.53;;;21.77;66.36
5609;BME280;2826;51.354;9.588;2023-06-26T04:35:06;97999.63;;;21.82;66.59
5609;BME280;2826;51.354;9.588;2023-06-26T04:37:33;97998.13;;;21.89;66.36
5609;BME280;2826;51.354;9.588;2023-06-26T04:39:59;98001.06;;;21.96;66.22
5609;BME280;2826;51.354;9.588;2023-06-26T04:42:26;97991.03;;;21.99;66.25
5609;BME280;2826;51.354;9.588;2023-06-26T04:44:52;97992.16;;;22.06;65.54
5609;BME280;2826;51.354;9.588;2023-06-26T04:47:19;97987.97;;;22.14;64.96
5609;BME280;2826;51.354;9.588;2023-06-26T04:49:47;97995.34;;;22.20;64.97
5609;BME280;2826;51.354;9.588;2023-06-26T04:52:13;97992.16;;;22.26;63.77
5609;BME280;2826;51.354;9.588;2023-06-26T04:54:40;97986.31;;;22.32;63.27
5609;BME280;2826;51.354;9.588;2023-06-26T04:57:06;97950.75;;;22.17;63.17
5609;BME280;2826;51.354;9.588;2023-06-26T04:59:34;97992.69;;;22.50;63.07
5609;BME280;2826;51.354;9.588;2023-06-26T05:02:00;97993.78;;;22.57;63.02
5609;BME280;2826;51.354;9.588;2023-06-26T05:04:27;97986.13;;;22.64;63.11
5609;BME280;2826;51.354;9.588;2023-06-26T05:06:55;97989.03;;;22.70;62.36
5609;BME280;2826;51.354;9.588;2023-06-26T05:09:21;97984.44;;;22.82;62.20
5609;BME280;2826;51.354;9.588;2023-06-26T05:11:48;97976.75;;;22.89;62.42
5609;BME280;2826;51.354;9.588;2023-06-26T05:14:14;97979.53;;;22.97;61.92
5609;BME280;2826;51.354;9.588;2023-06-26T05:16:41;97981.44;;;23.05;61.69
5609;BME280;2826;51.354;9.588;2023-06-26T05:19:08;97976.00;;;23.07;61.68
5609;BME280;2826;51.354;9.588;2023-06-26T05:21:34;97980.84;;;23.12;61.49
5609;BME280;2826;51.354;9.588;2023-06-26T05:24:04;97983.34;;;23.13;61.80
5609;BME280;2826;51.354;9.588;2023-06-26T05:26:32;97977.78;;;23.16;61.72
5609;BME280;2826;51.354;9.588;2023-06-26T05:28:59;97978.69;;;23.25;61.40
5609;BME280;2826;51.354;9.588;2023-06-26T05:31:26;97973.63;;;23.32;60.79
5609;BME280;2826;51.354;9.588;2023-06-26T05:33:55;97979.06;;;23.40;60.92
5609;BME280;2826;51.354;9.588;2023-06-26T05:36:24;97973.88;;;23.48;61.08
5609;BME280;2826;51.354;9.588;2023-06-26T05:38:51;97969.34;;;23.59;60.78
5609;BME280;2826;51.354;9.588;2023-06-26T05:41:20;97963.13;;;23.68;60.21
5609;BME280;2826;51.354;9.588;2023-06-26T05:43:46;97964.44;;;23.82;59.95
5609;BME280;2826;51.354;9.588;2023-06-26T05:46:13;97967.09;;;24.00;59.70
5609;BME280;2826;51.354;9.588;2023-06-26T05:48:40;97962.31;;;24.22;58.69
5609;BME280;2826;51.354;9.588;2023-06-26T05:51:07;97958.56;;;24.51;58.32
5609;BME280;2826;51.354;9.588;2023-06-26T05:53:34;97962.53;;;24.82;57.20
5609;BME280;2826;51.354;9.588;2023-06-26T05:56:01;97964.06;;;25.11;55.48
5609;BME280;2826;51.354;9.588;2023-06-26T05:58:30;97956.34;;;25.35;54.81
5609;BME280;2826;51.354;9.588;2023-06-26T06:00:57;97965.72;;;25.64;54.42
5609;BME280;2826;51.354;9.588;2023-06-26T06:03:23;97962.09;;;25.81;54.01
5609;BME280;2826;51.354;9.588;2023-06-26T06:05:50;97966.59;;;25.89;53.64
5609;BME280;2826;51.354;9.588;2023-06-26T06:08:16;97964.94;;;25.96;52.22
5609;BME280;2826;51.354;9.588;2023-06-26T06:10:43;97965.44;;;26.00;50.23
5609;BME280;2826;51.354;9.588;2023-06-26T06:13:09;97954.16;;;25.98;50.66
5609;BME280;2826;51.354;9.588;2023-06-26T06:15:37;97960.28;;;26.07;50.90
5609;BME280;2826;51.354;9.588;2023-06-26T06:18:04;97959.47;;;26.06;50.40
5609;BME280;2826;51.354;9.588;2023-06-26T06:20:30;97953.31;;;25.98;49.98
5609;BME280;2826;51.354;9.588;2023-06-26T06:22:57;97953.66;;;25.94;49.90
5609;BME280;2826;51.354;9.588;2023-06-26T06:25:23;97947.53;;;26.02;48.90
5609;BME280;2826;51.354;9.588;2023-06-26T06:27:50;97948.50;;;26.18;48.66
5609;BME280;2826;51.354;9.588;2023-06-26T06:30:16;97948.53;;;26.26;48.04
5609;BME280;2826;51.354;9.588;2023-06-26T06:32:44;97948.38;;;26.36;48.34
5609;BME280;2826;51.354;9.588;2023-06-26T06:35:11;97951.81;;;26.45;47.95
5609;BME280;2826;51.354;9.588;2023-06-26T06:37:38;97950.16;;;26.60;47.51
5609;BME280;2826;51.354;9.588;2023-06-26T06:40:05;97957.44;;;26.67;47.21
5609;BME280;2826;51.354;9.588;2023-06-26T06:42:33;97955.59;;;26.76;47.54
5609;BME280;2826;51.354;9.588;2023-06-26T06:45:01;97962.88;;;26.82;47.95
5609;BME280;2826;51.354;9.588;2023-06-26T06:47:28;97962.06;;;26.81;49.26
5609;BME280;2826;51.354;9.588;2023-06-26T06:49:56;97966.03;;;26.77;49.65
5609;BME280;2826;51.354;9.588;2023-06-26T06:52:22;97961.91;;;26.74;50.92
5609;BME280;2826;51.354;9.588;2023-06-26T06:54:51;97958.94;;;26.61;50.93
5609;BME280;2826;51.354;9.588;2023-06-26T06:57:18;97958.00;;;26.45;50.42
5609;BME280;2826;51.354;9.588;2023-06-26T06:59:44;97946.19;;;26.40;49.43
5609;BME280;2826;51.354;9.588;2023-06-26T07:02:12;97957.16;;;26.45;49.06
5609;BME280;2826;51.354;9.588;2023-06-26T07:04:38;97951.81;;;26.53;48.87
5609;BME280;2826;51.354;9.588;2023-06-26T07:07:06;97936.72;;;26.54;48.51
5609;BME280;2826;51.354;9.588;2023-06-26T07:09:34;97930.72;;;26.43;47.92
5609;BME280;2826;51.354;9.588;2023-06-26T07:12:00;97947.81;;;26.57;48.34
5609;BME280;2826;51.354;9.588;2023-06-26T07:14:28;97947.13;;;26.72;47.43
5609;BME280;2826;51.354;9.588;2023-06-26T07:16:54;97945.13;;;26.82;47.60
5609;BME280;2826;51.354;9.588;2023-06-26T07:19:21;97948.56;;;26.99;47.17
5609;BME280;2826;51.354;9.588;2023-06-26T07:21:47;97943.22;;;27.08;47.42
5609;BME280;2826;51.354;9.588;2023-06-26T07:24:15;97946.31;;;27.20;47.64
5609;BME280;2826;51.354;9.588;2023-06-26T07:26:42;97952.25;;;27.30;47.32
5609;BME280;2826;51.354;9.588;2023-06-26T07:29:09;97941.22;;;27.42;47.36
5609;BME280;2826;51.354;9.588;2023-06-26T07:31:35;97946.44;;;27.58;46.88
5609;BME280;2826;51.354;9.588;2023-06-26T07:34:02;97949.88;;;27.75;46.63
5609;BME280;2826;51.354;9.588;2023-06-26T07:36:28;97949.38;;;27.95;46.73
5609;BME280;2826;51.354;9.588;2023-06-26T07:38:55;97946.59;;;28.12;45.49
5609;BME280;2826;51.354;9.588;2023-06-26T07:41:23;97943.47;;;28.08;43.43
5609;BME280;2826;51.354;9.588;2023-06-26T07:43:49;97948.72;;;28.16;43.83
5609;BME280;2826;51.354;9.588;2023-06-26T07:46:16;97943.84;;;28.20;43.49
5609;BME280;2826;51.354;9.588;2023-06-26T07:48:42;97937.91;;;28.33;44.20
5609;BME280;2826;51.354;9.588;2023-06-26T07:51:09;97945.38;;;28.38;43.87
5609;BME280;2826;51.354;9.588;2023-06-26T07:53:35;97951.94;;;28.50;44.12
5609;BME280;2826;51.354;9.588;2023-06-26T07:56:02;97946.81;;;28.64;43.55
5609;BME280;2826;51.354;9.588;2023-06-26T07:58:30;97944.78;;;28.81;43.22
5609;BME280;2826;51.354;9.588;2023-06-26T08:00:56;97949.25;;;28.80;43.36
5609;BME280;2826;51.354;9.588;2023-06-26T08:03:23;97907.59;;;28.64;43.45
5609;BME280;2826;51.354;9.588;2023-06-26T08:05:49;97941.56;;;29.01;42.58
5609;BME280;2826;51.354;9.588;2023-06-26T08:08:16;97944.13;;;29.09;42.04
5609;BME280;2826;51.354;9.588;2023-06-26T08:10:42;97936.47;;;29.21;41.79
5609;BME280;2826;51.354;9.588;2023-06-26T08:13:09;97935.56;;;29.29;41.59
5609;BME280;2826;51.354;9.588;2023-06-26T08:15:37;97937.81;;;29.32;41.58
5609;BME280;2826;51.354;9.588;2023-06-26T08:18:04;97942.88;;;29.42;41.45
5609;BME280;2826;51.354;9.588;2023-06-26T08:20:31;97952.59;;;29.50;41.73
5609;BME280;2826;51.354;9.588;2023-06-26T08:22:58;97941.47;;;29.61;41.14
5609;BME280;2826;51.354;9.588;2023-06-26T08:25:24;97952.53;;;29.80;41.81
5609;BME280;2826;51.354;9.588;2023-06-26T08:27:51;97949.50;;;29.83;41.68
5609;BME280;2826;51.354;9.588;2023-06-26T08:30:20;97942.03;;;29.78;39.67
5609;BME280;2826;51.354;9.588;2023-06-26T08:32:48;97934.31;;;29.90;40.19
5609;BME280;2826;51.354;9.588;2023-06-26T08:35:16;97937.91;;;29.97;40.15
5609;BME280;2826;51.354;9.588;2023-06-26T08:37:43;97932.00;;;30.02;40.73
5609;BME280;2826;51.354;9.588;2023-06-26T08:40:10;97933.03;;;30.08;40.14
5609;BME280;2826;51.354;9.588;2023-06-26T08:42:37;97942.81;;;30.16;41.27
5609;BME280;2826;51.354;9.588;2023-06-26T08:45:03;97941.44;;;30.27;40.48
5609;BME280;2826;51.354;9.588;2023-06-26T08:47:33;97944.81;;;30.35;40.89
5609;BME280;2826;51.354;9.588;2023-06-26T08:50:07;97888.31;;;30.17;41.13
5609;BME280;2826;51.354;9.588;2023-06-26T08:52:37;97925.00;;;30.58;39.51
5609;BME280;2826;51.354;9.588;2023-06-26T08:55:09;97925.03;;;30.65;40.13
5609;BME280;2826;51.354;9.588;2023-06-26T08:57:36;97916.59;;;30.61;39.28
5609;BME280;2826;51.354;9.588;2023-06-26T09:00:05;97917.16;;;30.57;39.52
5609;BME280;2826;51.354;9.588;2023-06-26T09:02:34;97926.91;;;30.71;39.98
5609;BME280;2826;51.354;9.588;2023-06-26T09:05:03;97933.16;;;30.79;39.55
5609;BME280;2826;51.354;9.588;2023-06-26T09:07:30;97930.75;;;30.90;39.95
5609;BME280;2826;51.354;9.588;2023-06-26T09:09:57;97928.56;;;31.08;39.33
5609;BME280;2826;51.354;9.588;2023-06-26T09:12:24;97929.22;;;31.16;38.14
5609;BME280;2826;51.354;9.588;2023-06-26T09:14:53;97926.94;;;31.20;39.13
5609;BME280;2826;51.354;9.588;2023-06-26T09:17:24;97926.03;;;31.35;38.77
5609;BME280;2826;51.354;9.588;2023-06-26T09:19:50;97926.91;;;31.76;38.61
5609;BME280;2826;51.354;9.588;2023-06-26T09:22:18;97939.72;;;31.80;36.71
5609;BME280;2826;51.354;9.588;2023-06-26T09:24:45;97888.34;;;31.50;37.91
5609;BME280;2826;51.354;9.588;2023-06-26T09:27:12;97917.84;;;31.63;39.43
5609;BME280;2826;51.354;9.588;2023-06-26T09:29:39;97938.22;;;31.58;38.88
5609;BME280;2826;51.354;9.588;2023-06-26T09:32:07;97948.09;;;31.50;39.11
5609;BME280;2826;51.354;9.588;2023-06-26T09:34:34;97936.31;;;31.38;40.58
5609;BME280;2826;51.354;9.588;2023-06-26T09:37:03;97935.81;;;31.14;40.35
5609;BME280;2826;51.354;9.588;2023-06-26T09:39:31;97940.03;;;30.95;39.63
5609;BME280;2826;51.354;9.588;2023-06-26T09:41:58;97932.16;;;30.86;39.69
5609;BME280;2826;51.354;9.588;2023-06-26T09:44:24;97934.78;;;30.73;41.40
5609;BME280;2826;51.354;9.588;2023-06-26T09:46:51;97937.81;;;30.63;41.49
5609;BME280;2826;51.354;9.588;2023-06-26T09:49:18;97932.09;;;30.73;42.56
5609;BME280;2826;51.354;9.588;2023-06-26T09:51:45;97920.25;;;30.89;41.25
5609;BME280;2826;51.354;9.588;2023-06-26T09:54:12;97931.31;;;31.28;41.93
5609;BME280;2826;51.354;9.588;2023-06-26T09:56:40;97932.22;;;31.49;40.91
5609;BME280;2826;51.354;9.588;2023-06-26T09:59:06;97941.16;;;31.76;41.16
5609;BME280;2826;51.354;9.588;2023-06-26T10:01:40;97943.00;;;31.83;41.40
5609;BME280;2826;51.354;9.588;2023-06-26T10:04:07;97945.00;;;31.47;40.94
5609;BME280;2826;51.354;9.588;2023-06-26T10:06:45;97949.22;;;30.79;41.83
5609;BME280;2826;51.354;9.588;2023-06-26T10:09:14;97959.41;;;29.67;44.55
5609;BME280;2826;51.354;9.588;2023-06-26T10:11:47;97966.84;;;29.20;45.79
5609;BME280;2826;51.354;9.588;2023-06-26T10:14:16;97968.03;;;28.87;46.36
5609;BME280;2826;51.354;9.588;2023-06-26T10:16:46;97972.88;;;28.53;47.36
5609;BME280;2826;51.354;9.588;2023-06-26T10:19:16;97969.00;;;28.41;48.01
5609;BME280;2826;51.354;9.588;2023-06-26T10:21:46;97964.97;;;28.30;48.28
5609;BME280;2826;51.354;9.588;2023-06-26T10:24:13;97966.16;;;28.42;48.39
5609;BME280;2826;51.354;9.588;2023-06-26T10:26:42;97959.84;;;28.43;48.48
5609;BME280;2826;51.354;9.588;2023-06-26T10:29:13;97965.25;;;28.35;48.91
5609;BME280;2826;51.354;9.588;2023-06-26T10:31:43;97976.31;;;28.00;48.95
5609;BME280;2826;51.354;9.588;2023-06-26T10:34:12;97949.94;;;27.90;49.40
5609;BME280;2826;51.354;9.588;2023-06-26T10:36:39;97990.66;;;27.99;50.12
5609;BME280;2826;51.354;9.588;2023-06-26T10:39:06;98002.75;;;27.47;49.50
5609;BME280;2826;51.354;9.588;2023-06-26T10:41:36;97995.88;;;27.21;50.26
5609;BME280;2826;51.354;9.588;2023-06-26T10:44:08;98018.22;;;26.86;50.96
5609;BME280;2826;51.354;9.588;2023-06-26T10:46:52;98037.91;;;26.60;54.58
5609;BME280;2826;51.354;9.588;2023-06-26T10:49:19;98061.09;;;26.08;59.07
5609;BME280;2826;51.354;9.588;2023-06-26T10:51:46;98064.84;;;25.46;62.93
5609;BME280;2826;51.354;9.588;2023-06-26T10:54:15;98046.25;;;24.40;65.69
5609;BME280;2826;51.354;9.588;2023-06-26T10:56:42;98082.69;;;23.26;72.55
5609;BME280;2826;51.354;9.588;2023-06-26T10:59:17;98073.34;;;22.64;76.46
5609;BME280;2826;51.354;9.588;2023-06-26T11:01:44;98071.09;;;22.29;79.44
5609;BME280;2826;51.354;9.588;2023-06-26T11:04:13;98066.63;;;21.90;82.88
5609;BME280;2826;51.354;9.588;2023-06-26T11:06:45;98065.72;;;21.70;86.17
5609;BME280;2826;51.354;9.588;2023-06-26T11:09:17;98071.25;;;21.67;86.80
5609;BME280;2826;51.354;9.588;2023-06-26T11:11:58;98065.44;;;21.73;88.57
5609;BME280;2826;51.354;9.588;2023-06-26T11:14:27;98064.97;;;22.09;89.10
5609;BME280;2826;51.354;9.588;2023-06-26T11:16:55;98056.66;;;22.73;91.76
5609;BME280;2826;51.354;9.588;2023-06-26T11:19:25;98060.41;;;23.28;87.73
5609;BME280;2826;51.354;9.588;2023-06-26T11:21:52;98061.72;;;23.80;85.34
5609;BME280;2826;51.354;9.588;2023-06-26T11:24:20;98059.59;;;24.12;82.94
5609;BME280;2826;51.354;9.588;2023-06-26T11:26:46;98061.66;;;24.63;82.05
5609;BME280;2826;51.354;9.588;2023-06-26T11:29:13;98063.00;;;25.12;79.67
5609;BME280;2826;51.354;9.588;2023-06-26T11:31:40;98063.22;;;25.18;73.94
5609;BME280;2826;51.354;9.588;2023-06-26T11:34:09;98070.25;;;25.28;74.79
5609;BME280;2826;51.354;9.588;2023-06-26T11:36:39;98065.47;;;25.31;73.71
5609;BME280;2826;51.354;9.588;2023-06-26T11:39:08;98072.16;;;25.44;76.02
5609;BME280;2826;51.354;9.588;2023-06-26T11:41:36;98070.81;;;25.40;73.06
5609;BME280;2826;51.354;9.588;2023-06-26T11:44:03;98075.03;;;25.24;73.35
5609;BME280;2826;51.354;9.588;2023-06-26T11:46:31;98074.97;;;25.16;75.06
5609;BME280;2826;51.354;9.588;2023-06-26T11:48:58;98087.06;;;25.10;76.62
5609;BME280;2826;51.354;9.588;2023-06-26T11:51:27;98085.13;;;24.94;77.04
5609;BME280;2826;51.354;9.588;2023-06-26T11:53:55;98074.47;;;24.86;77.50
5609;BME280;2826;51.354;9.588;2023-06-26T11:56:22;98078.84;;;24.95;77.86
5609;BME280;2826;51.354;9.588;2023-06-26T11:58:56;98089.72;;;25.10;75.60
5609;BME280;2826;51.354;9.588;2023-06-26T12:01:24;98093.00;;;25.39;76.07
5609;BME280;2826;51.354;9.588;2023-06-26T12:03:53;98080.72;;;25.64;75.68
5609;BME280;2826;51.354;9.588;2023-06-26T12:06:20;98086.03;;;25.64;70.38
5609;BME280;2826;51.354;9.588;2023-06-26T12:08:47;98098.50;;;25.72;70.08
5609;BME280;2826;51.354;9.588;2023-06-26T12:11:16;98091.53;;;25.71;68.44
5609;BME280;2826;51.354;9.588;2023-06-26T12:13:43;98101.78;;;25.57;67.87
5609;BME280;2826;51.354;9.588;2023-06-26T12:16:12;98105.00;;;25.16;65.15
5609;BME280;2826;51.354;9.588;2023-06-26T12:18:40;98104.16;;;25.16;66.45
5609;BME280;2826;51.354;9.588;2023-06-26T12:21:07;98105.16;;;25.15;65.76
5609;BME280;2826;51.354;9.588;2023-06-26T12:23:35;98097.56;;;25.20;65.25
5609;BME280;2826;51.354;9.588;2023-06-26T12:26:19;98098.44;;;25.29;66.42
5609;BME280;2826;51.354;9.588;2023-06-26T12:28:47;98091.00;;;25.33;65.29
5609;BME280;2826;51.354;9.588;2023-06-26T12:31:14;98094.00;;;25.38;65.21
5609;BME280;2826;51.354;9.588;2023-06-26T12:33:42;98090.84;;;25.34;64.80
5609;BME280;2826;51.354;9.588;2023-06-26T12:36:10;98088.50;;;25.31;65.79
5609;BME280;2826;51.354;9.588;2023-06-26T12:38:37;98094.50;;;25.33;65.17
5609;BME280;2826;51.354;9.588;2023-06-26T12:41:04;98095.75;;;25.21;63.84
5609;BME280;2826;51.354;9.588;2023-06-26T12:43:32;98099.66;;;25.35;65.48
5609;BME280;2826;51.354;9.588;2023-06-26T12:45:59;98103.66;;;25.47;63.83
5609;BME280;2826;51.354;9.588;2023-06-26T12:48:36;98109.94;;;25.64;63.71
5609;BME280;2826;51.354;9.588;2023-06-26T12:51:08;98105.19;;;25.50;61.29
5609;BME280;2826;51.354;9.588;2023-06-26T12:53:35;98113.06;;;25.60;61.34
5609;BME280;2826;51.354;9.588;2023-06-26T12:56:02;98108.59;;;25.60;60.86
5609;BME280;2826;51.354;9.588;2023-06-26T12:58:28;98105.28;;;25.66;62.92
5609;BME280;2826;51.354;9.588;2023-06-26T13:00:56;98107.63;;;25.69;61.86
5609;BME280;2826;51.354;9.588;2023-06-26T13:03:23;98112.81;;;25.79;60.24
5609;BME280;2826;51.354;9.588;2023-06-26T13:05:50;98103.81;;;25.72;55.65
5609;BME280;2826;51.354;9.588;2023-06-26T13:08:16;98099.69;;;25.78;54.73
5609;BME280;2826;51.354;9.588;2023-06-26T13:10:44;98105.47;;;25.73;53.40
5609;BME280;2826;51.354;9.588;2023-06-26T13:13:11;98107.47;;;25.71;55.50
5609;BME280;2826;51.354;9.588;2023-06-26T13:15:37;98112.44;;;25.66;55.64
5609;BME280;2826;51.354;9.588;2023-06-26T13:18:05;98098.88;;;25.77;54.30
5609;BME280;2826;51.354;9.588;2023-06-26T13:20:32;98096.09;;;26.04;56.28
5609;BME280;2826;51.354;9.588;2023-06-26T13:22:58;98096.50;;;26.17;53.61
5609;BME280;2826;51.354;9.588;2023-06-26T13:25:25;98087.25;;;26.63;52.56
5609;BME280;2826;51.354;9.588;2023-06-26T13:27:52;98081.56;;;26.83;50.94
5609;BME280;2826;51.354;9.588;2023-06-26T13:30:18;98088.72;;;27.07;49.67